createdAt,value
2018-09-14T00:00:25.845Z,52.50
2018-09-14T00:02:54.366Z,58.23
2018-09-14T00:05:22.896Z,50.63
2018-09-14T00:07:51.419Z,64.33
2018-09-14T00:10:20.015Z,59.37
2018-09-14T00:12:48.610Z,55.33
2018-09-14T00:15:17.128Z,53.47
2018-09-14T00:17:45.661Z,53.73
2018-09-14T00:20:14.218Z,52.60
2018-09-14T00:22:42.770Z,49.87
2018-09-14T00:25:11.293Z,55.33
2018-09-14T00:27:39.923Z,65.93
2018-09-14T00:30:08.459Z,49.97
2018-09-14T00:32:36.977Z,51.03
2018-09-14T00:35:05.848Z,61.97
2018-09-14T00:37:34.393Z,61.60
2018-09-14T00:40:03.084Z,63.77
2018-09-14T00:42:31.626Z,63.67
2018-09-14T00:45:00.123Z,55.27
2018-09-14T00:47:28.650Z,58.07
2018-09-14T00:49:57.183Z,58.43
2018-09-14T00:52:25.778Z,54.57
2018-09-14T00:54:54.268Z,59.73
2018-09-14T00:57:22.834Z,53.73
2018-09-14T00:59:51.398Z,58.97
2018-09-14T01:02:19.894Z,45.20
2018-09-14T01:04:48.427Z,51.00
2018-09-14T01:07:16.927Z,55.27
2018-09-14T01:09:45.453Z,51.10
2018-09-14T01:12:13.962Z,62.13
2018-09-14T01:14:42.547Z,68.93
2018-09-14T01:17:11.144Z,72.60
2018-09-14T01:19:39.630Z,62.60
2018-09-14T01:22:08.116Z,64.23
2018-09-14T01:24:36.630Z,59.83
2018-09-14T01:27:05.128Z,62.33
2018-09-14T01:29:33.642Z,80.13
2018-09-14T01:32:02.224Z,63.50
2018-09-14T01:34:30.746Z,54.27
2018-09-14T01:36:59.226Z,58.43
2018-09-14T01:39:27.770Z,64.50
2018-09-14T01:41:56.268Z,58.07
2018-09-14T01:44:24.809Z,58.10
2018-09-14T01:46:53.291Z,68.73
2018-09-14T01:49:21.807Z,85.50
2018-09-14T01:51:50.314Z,79.00
2018-09-14T01:54:18.854Z,82.30
2018-09-14T01:56:47.511Z,65.60
2018-09-14T01:59:16.019Z,70.40
2018-09-14T02:01:44.546Z,66.40
2018-09-14T02:04:13.072Z,65.10
2018-09-14T02:06:41.658Z,67.20
2018-09-14T02:09:11.274Z,81.23
2018-09-14T02:11:39.849Z,72.80
2018-09-14T02:14:08.437Z,83.37
2018-09-14T02:16:36.959Z,88.07
2018-09-14T02:19:05.469Z,82.20
2018-09-14T02:21:34.015Z,71.43
2018-09-14T02:24:02.510Z,69.00
2018-09-14T02:26:31.025Z,77.20
2018-09-14T02:28:59.516Z,84.37
2018-09-14T02:31:28.050Z,66.50
2018-09-14T02:33:56.543Z,66.43
2018-09-14T02:36:25.084Z,66.47
2018-09-14T02:38:53.575Z,60.57
2018-09-14T02:41:22.102Z,62.10
2018-09-14T02:43:50.612Z,69.10
2018-09-14T02:46:19.130Z,67.00
2018-09-14T02:48:47.612Z,77.37
2018-09-14T02:51:16.226Z,61.70
2018-09-14T02:53:44.795Z,81.27
2018-09-14T02:56:13.286Z,85.97
2018-09-14T02:58:41.798Z,95.97
2018-09-14T03:01:10.284Z,103.07
2018-09-14T03:03:38.793Z,93.63
2018-09-14T03:06:07.281Z,107.97
2018-09-14T03:08:35.839Z,86.57
2018-09-14T03:11:04.398Z,86.17
2018-09-14T03:13:32.911Z,83.77
2018-09-14T03:16:01.391Z,87.13
2018-09-14T03:18:29.947Z,79.50
2018-09-14T03:20:58.444Z,84.50
2018-09-14T03:23:26.950Z,93.03
2018-09-14T03:25:55.507Z,94.37
2018-09-14T03:28:24.002Z,75.27
2018-09-14T03:30:52.507Z,76.23
2018-09-14T03:33:21.015Z,70.17
2018-09-14T03:35:49.539Z,69.73
2018-09-14T03:38:18.067Z,79.53
2018-09-14T03:40:46.584Z,77.50
2018-09-14T03:43:15.107Z,105.30
2018-09-14T03:45:43.598Z,107.20
2018-09-14T03:48:12.130Z,104.20
2018-09-14T03:50:40.608Z,114.57
2018-09-14T03:53:09.088Z,105.37
2018-09-14T03:55:44.284Z,105.47
2018-09-14T03:58:12.762Z,102.30
2018-09-14T04:00:41.267Z,100.73
2018-09-14T04:03:09.784Z,87.60
2018-09-14T04:05:38.331Z,87.10
2018-09-14T04:08:06.950Z,71.43
2018-09-14T04:10:35.484Z,64.23
2018-09-14T04:13:03.995Z,68.27
2018-09-14T04:15:32.490Z,56.03
2018-09-14T04:18:00.986Z,56.33
2018-09-14T04:20:29.482Z,60.93
2018-09-14T04:22:58.031Z,55.67
2018-09-14T04:25:26.505Z,50.50
2018-09-14T04:27:54.994Z,47.50
2018-09-14T04:30:23.494Z,51.13
2018-09-14T04:32:52.102Z,52.10
2018-09-14T04:35:20.710Z,44.70
2018-09-14T04:37:49.271Z,48.20
2018-09-14T04:40:18.111Z,54.67
2018-09-14T04:42:46.619Z,47.10
2018-09-14T04:45:15.678Z,41.70
2018-09-14T04:47:44.254Z,37.37
2018-09-14T04:50:12.786Z,53.93
2018-09-14T04:52:41.317Z,42.33
2018-09-14T04:55:09.855Z,44.90
2018-09-14T04:57:38.412Z,44.50
2018-09-14T05:00:06.951Z,44.10
2018-09-14T05:02:35.531Z,46.27
2018-09-14T05:05:04.081Z,48.63
2018-09-14T05:07:32.654Z,44.20
2018-09-14T05:10:01.277Z,35.40
2018-09-14T05:12:29.839Z,39.37
2018-09-14T05:14:58.326Z,40.67
2018-09-14T05:17:26.866Z,38.27
2018-09-14T05:19:55.370Z,39.93
2018-09-14T05:22:24.346Z,39.40
2018-09-14T05:24:52.952Z,32.90
2018-09-14T05:27:21.506Z,36.67
2018-09-14T05:29:50.058Z,35.97
2018-09-14T05:32:18.559Z,33.80
2018-09-14T05:34:47.092Z,41.73
2018-09-14T05:37:15.639Z,37.90
2018-09-14T05:39:44.201Z,41.33
2018-09-14T05:42:12.773Z,42.50
2018-09-14T05:44:41.302Z,41.87
2018-09-14T05:47:09.782Z,37.43
2018-09-14T05:49:38.325Z,42.00
2018-09-14T05:52:06.939Z,45.77
2018-09-14T05:54:35.544Z,40.27
2018-09-14T05:57:04.006Z,41.73
2018-09-14T05:59:32.588Z,41.53
2018-09-14T06:02:01.101Z,45.87
2018-09-14T06:04:29.633Z,49.37
2018-09-14T06:06:58.143Z,47.73
2018-09-14T06:09:26.680Z,44.03
2018-09-14T06:11:55.291Z,51.40
2018-09-14T06:14:23.826Z,46.17
2018-09-14T06:16:52.350Z,48.10
2018-09-14T06:19:20.891Z,43.13
2018-09-14T06:21:49.527Z,49.77
2018-09-14T06:24:18.073Z,49.27
2018-09-14T06:26:46.588Z,50.60
2018-09-14T06:29:15.127Z,48.70
2018-09-14T06:31:43.626Z,47.53
2018-09-14T06:34:12.175Z,48.67
2018-09-14T06:36:40.699Z,45.60
2018-09-14T06:39:10.856Z,43.77
2018-09-14T06:41:39.467Z,44.30
2018-09-14T06:44:08.263Z,46.27
2018-09-14T06:46:36.807Z,50.70
2018-09-14T06:49:06.503Z,46.43
2018-09-14T06:51:36.434Z,46.27
2018-09-14T06:54:05.050Z,58.43
2018-09-14T06:56:33.572Z,49.70
2018-09-14T06:59:02.093Z,46.73
2018-09-14T07:01:30.638Z,47.53
2018-09-14T07:03:59.498Z,49.87
2018-09-14T07:06:28.092Z,46.53
2018-09-14T07:08:56.574Z,45.87
2018-09-14T07:11:25.187Z,40.90
2018-09-14T07:13:54.178Z,41.47
2018-09-14T07:16:22.742Z,45.47
2018-09-14T07:18:51.218Z,42.07
2018-09-14T07:21:19.735Z,44.03
2018-09-14T07:23:48.275Z,42.57
2018-09-14T07:26:16.809Z,39.10
2018-09-14T07:28:45.375Z,36.43
2018-09-14T07:31:13.864Z,36.27
2018-09-14T07:33:42.482Z,34.00
2018-09-14T07:36:11.266Z,33.43
2018-09-14T07:38:39.830Z,33.77
2018-09-14T07:41:08.409Z,38.00
2018-09-14T07:43:36.954Z,32.50
2018-09-14T07:46:05.475Z,30.40
2018-09-14T07:48:34.039Z,31.83
2018-09-14T07:51:02.569Z,34.13
2018-09-14T07:53:31.085Z,35.00
2018-09-14T07:55:59.576Z,33.93
2018-09-14T07:58:28.110Z,30.73
2018-09-14T08:00:56.611Z,39.13
2018-09-14T08:03:25.130Z,34.97
2018-09-14T08:05:53.646Z,33.83
2018-09-14T08:08:22.157Z,31.20
2018-09-14T08:10:50.669Z,34.37
2018-09-14T08:13:19.231Z,30.60
2018-09-14T08:15:47.741Z,37.27
2018-09-14T08:18:16.258Z,29.47
2018-09-14T08:20:44.759Z,34.50
2018-09-14T08:23:13.299Z,27.57
2018-09-14T08:25:41.824Z,25.53
2018-09-14T08:28:10.306Z,25.53
2018-09-14T08:30:38.848Z,27.87
2018-09-14T08:33:07.389Z,33.27
2018-09-14T08:35:35.927Z,27.93
2018-09-14T08:38:04.433Z,30.20
2018-09-14T08:40:32.980Z,31.77
2018-09-14T08:43:01.471Z,23.43
2018-09-14T08:45:30.005Z,19.43
2018-09-14T08:47:58.576Z,21.03
2018-09-14T08:50:27.038Z,22.60
2018-09-14T08:52:55.542Z,25.80
2018-09-14T08:55:24.195Z,28.37
2018-09-14T08:57:52.739Z,23.63
2018-09-14T09:00:23.823Z,22.60
2018-09-14T09:02:53.194Z,25.83
2018-09-14T09:05:22.140Z,30.00
2018-09-14T09:07:50.949Z,26.40
2018-09-14T09:10:19.478Z,26.47
2018-09-14T09:12:48.627Z,25.80
2018-09-14T09:15:17.209Z,24.93
2018-09-14T09:17:45.791Z,29.50
2018-09-14T09:20:14.287Z,25.60
2018-09-14T09:22:42.794Z,26.57
2018-09-14T09:25:11.312Z,25.63
2018-09-14T09:27:39.856Z,26.70
2018-09-14T09:30:08.448Z,27.93
2018-09-14T09:32:37.109Z,26.53
2018-09-14T09:35:05.622Z,27.87
2018-09-14T09:37:34.283Z,27.33
2018-09-14T09:40:02.814Z,26.47
2018-09-14T09:42:31.434Z,25.80
2018-09-14T09:44:59.939Z,27.43
2018-09-14T09:47:28.497Z,26.93
2018-09-14T09:49:56.995Z,24.53
2018-09-14T09:52:25.624Z,32.60
2018-09-14T09:54:54.115Z,28.10
2018-09-14T09:57:22.663Z,24.87
2018-09-14T09:59:51.203Z,22.67
2018-09-14T10:02:25.260Z,26.40
2018-09-14T10:04:59.182Z,22.37
2018-09-14T10:07:27.735Z,22.73
2018-09-14T10:09:56.791Z,23.23
2018-09-14T10:12:25.493Z,22.47
2018-09-14T10:14:54.058Z,24.07
2018-09-14T10:17:22.581Z,26.50
2018-09-14T10:19:51.145Z,23.17
2018-09-14T10:22:19.659Z,26.00
2018-09-14T10:24:48.622Z,24.60
2018-09-14T10:27:17.223Z,28.43
2018-09-14T10:29:45.788Z,24.00
2018-09-14T10:32:14.286Z,24.37
2018-09-14T10:34:42.802Z,24.77
2018-09-14T10:37:15.880Z,30.47
2018-09-14T10:39:44.416Z,24.73
2018-09-14T10:42:12.926Z,19.20
2018-09-14T10:44:41.639Z,25.70
2018-09-14T10:47:10.155Z,22.87
2018-09-14T10:49:38.743Z,24.30
2018-09-14T10:52:07.265Z,26.40
2018-09-14T10:54:35.884Z,25.53
2018-09-14T10:57:04.418Z,25.50
2018-09-14T10:59:32.946Z,30.00
2018-09-14T11:02:01.454Z,26.70
2018-09-14T11:04:30.029Z,24.50
2018-09-14T11:06:58.521Z,30.20
2018-09-14T11:09:27.132Z,28.53
2018-09-14T11:11:55.711Z,25.33
2018-09-14T11:14:24.227Z,27.97
2018-09-14T11:16:52.745Z,25.20
2018-09-14T11:19:21.355Z,22.37
2018-09-14T11:21:49.893Z,21.00
2018-09-14T11:24:18.380Z,22.27
2018-09-14T11:26:46.987Z,23.63
2018-09-14T11:29:15.486Z,21.73
2018-09-14T11:31:43.990Z,21.57
2018-09-14T11:34:12.495Z,26.80
2018-09-14T11:36:41.039Z,23.53
2018-09-14T11:39:10.626Z,24.90
2018-09-14T11:41:39.351Z,25.17
2018-09-14T11:44:07.871Z,20.37
2018-09-14T11:46:36.457Z,24.27
2018-09-14T11:49:04.937Z,27.00
2018-09-14T11:51:33.470Z,27.67
2018-09-14T11:54:02.051Z,31.00
2018-09-14T11:56:30.550Z,22.87
2018-09-14T11:58:59.135Z,25.30
2018-09-14T12:01:27.733Z,27.27
2018-09-14T12:03:56.281Z,29.43
2018-09-14T12:06:24.843Z,26.97
2018-09-14T12:08:53.406Z,29.80
2018-09-14T12:11:22.106Z,21.77
2018-09-14T12:13:50.791Z,26.40
2018-09-14T12:16:19.202Z,24.63
2018-09-14T12:18:47.732Z,23.10
2018-09-14T12:21:16.351Z,26.50
2018-09-14T12:23:44.919Z,22.70
2018-09-14T12:26:13.431Z,22.83
2018-09-14T12:28:41.991Z,22.63
2018-09-14T12:31:10.512Z,24.90
2018-09-14T12:33:39.042Z,23.60
2018-09-14T12:36:07.668Z,22.00
2018-09-14T12:38:36.220Z,22.00
2018-09-14T12:41:04.780Z,26.63
2018-09-14T12:43:33.352Z,23.77
2018-09-14T12:46:01.963Z,19.37
2018-09-14T12:48:30.454Z,18.53
2018-09-14T12:50:59.719Z,19.00
2018-09-14T12:53:28.247Z,22.17
2018-09-14T12:55:56.880Z,21.23
2018-09-14T12:58:25.418Z,18.17
2018-09-14T13:00:54.011Z,20.10
2018-09-14T13:03:22.532Z,18.23
2018-09-14T13:05:51.218Z,18.90
2018-09-14T13:08:19.751Z,22.60
2018-09-14T13:10:48.335Z,28.40
2018-09-14T13:13:16.908Z,17.30
2018-09-14T13:15:45.487Z,15.67
2018-09-14T13:18:14.004Z,17.03
2018-09-14T13:20:42.562Z,19.57
2018-09-14T13:23:11.107Z,14.80
2018-09-14T13:25:39.838Z,13.70
2018-09-14T13:28:08.515Z,16.07
2018-09-14T13:30:37.075Z,14.17
2018-09-14T13:33:05.641Z,19.33
2018-09-14T13:35:34.159Z,16.27
2018-09-14T13:38:02.703Z,23.50
2018-09-14T13:40:31.252Z,10.80
2018-09-14T13:42:59.804Z,9.87
2018-09-14T13:45:28.318Z,10.17
2018-09-14T13:47:56.883Z,11.37
2018-09-14T13:50:25.399Z,12.67
2018-09-14T13:52:53.949Z,13.23
2018-09-14T13:55:22.438Z,6.87
2018-09-14T13:57:51.073Z,7.03
2018-09-14T14:00:19.609Z,11.97
2018-09-14T14:02:48.254Z,14.33
2018-09-14T14:05:17.133Z,12.47
2018-09-14T14:07:45.707Z,8.83
2018-09-14T14:10:14.403Z,11.60
2018-09-14T14:12:43.258Z,11.03
2018-09-14T14:15:11.792Z,8.60
2018-09-14T14:17:40.699Z,8.07
2018-09-14T14:20:09.173Z,6.90
2018-09-14T14:22:37.814Z,7.30
2018-09-14T14:25:07.202Z,11.17
2018-09-14T14:27:36.208Z,13.53
2018-09-14T14:30:04.798Z,6.97
2018-09-14T14:32:33.355Z,7.83
2018-09-14T14:35:01.960Z,9.60
2018-09-14T14:37:30.606Z,8.40
2018-09-14T14:39:59.536Z,7.40
2018-09-14T14:42:28.062Z,8.60
2018-09-14T14:44:56.937Z,5.90
2018-09-14T14:47:25.455Z,4.80
2018-09-14T14:49:54.043Z,6.63
2018-09-14T14:52:22.568Z,6.53
2018-09-14T14:54:51.219Z,8.63
2018-09-14T14:57:20.147Z,6.50
2018-09-14T14:59:48.764Z,6.13
2018-09-14T15:02:17.328Z,5.57
2018-09-14T15:04:45.878Z,9.07
2018-09-14T15:07:14.457Z,8.23
2018-09-14T15:09:43.020Z,6.97
2018-09-14T15:12:11.595Z,7.30
2018-09-14T15:14:40.244Z,11.00
2018-09-14T15:17:08.832Z,6.77
2018-09-14T15:19:37.494Z,5.87
2018-09-14T15:22:06.080Z,11.87
2018-09-14T15:24:34.661Z,8.03
2018-09-14T15:27:03.207Z,8.90
2018-09-14T15:29:31.725Z,8.73
2018-09-14T15:32:06.737Z,8.93
2018-09-14T15:34:35.246Z,10.20
2018-09-14T15:37:03.825Z,9.23
2018-09-14T15:39:32.347Z,13.77
2018-09-14T15:42:00.922Z,9.00
2018-09-14T15:44:29.477Z,5.27
2018-09-14T15:46:58.031Z,8.63
2018-09-14T15:49:26.614Z,9.93
2018-09-14T15:51:55.179Z,4.50
2018-09-14T15:54:23.698Z,5.40
2018-09-14T15:56:52.317Z,5.67
2018-09-14T15:59:21.465Z,7.13
2018-09-14T16:01:50.034Z,11.47
2018-09-14T16:04:18.563Z,6.57
2018-09-14T16:06:47.105Z,8.90
2018-09-14T16:09:15.610Z,5.60
2018-09-14T16:11:44.195Z,9.37
2018-09-14T16:14:12.769Z,9.53
2018-09-14T16:16:41.294Z,10.47
2018-09-14T16:19:09.866Z,9.80
2018-09-14T16:21:38.451Z,6.00
2018-09-14T16:24:07.299Z,8.40
2018-09-14T16:26:35.891Z,10.53
2018-09-14T16:29:04.508Z,11.73
2018-09-14T16:31:33.102Z,13.00
2018-09-14T16:34:01.648Z,4.27
2018-09-14T16:36:30.292Z,10.10
2018-09-14T16:38:59.448Z,10.30
2018-09-14T16:41:27.988Z,9.53
2018-09-14T16:43:56.549Z,7.80
2018-09-14T16:46:25.117Z,12.60
2018-09-14T16:48:53.669Z,10.93
2018-09-14T16:51:22.195Z,9.90
2018-09-14T16:53:50.730Z,10.43
2018-09-14T16:56:19.839Z,13.80
2018-09-14T16:58:48.399Z,11.67
2018-09-14T17:01:16.947Z,5.93
2018-09-14T17:03:45.582Z,9.53
2018-09-14T17:06:14.422Z,11.83
2018-09-14T17:08:43.106Z,6.83
2018-09-14T17:11:11.724Z,12.20
2018-09-14T17:13:40.295Z,11.80
2018-09-14T17:16:08.820Z,7.80
2018-09-14T17:18:37.404Z,12.50
2018-09-14T17:21:06.026Z,5.50
2018-09-14T17:23:34.584Z,7.77
2018-09-14T17:26:03.132Z,9.63
2018-09-14T17:28:31.736Z,7.10
2018-09-14T17:31:00.307Z,9.50
2018-09-14T17:33:28.856Z,7.93
2018-09-14T17:35:57.489Z,11.03
2018-09-14T17:38:26.040Z,5.63
2018-09-14T17:40:54.594Z,12.57
2018-09-14T17:43:23.131Z,17.67
2018-09-14T17:45:51.709Z,12.10
2018-09-14T17:48:20.239Z,7.50
2018-09-14T17:50:50.983Z,7.90
2018-09-14T17:53:19.546Z,6.93
2018-09-14T17:55:48.095Z,6.00
2018-09-14T17:58:16.606Z,6.70
2018-09-14T18:00:45.134Z,7.33
2018-09-14T18:03:13.722Z,18.47
2018-09-14T18:05:42.251Z,10.67
2018-09-14T18:08:10.809Z,17.90
2018-09-14T18:10:39.338Z,8.37
2018-09-14T18:13:07.922Z,6.73
2018-09-14T18:15:37.032Z,7.30
2018-09-14T18:18:05.663Z,13.60
2018-09-14T18:20:34.332Z,9.13
2018-09-14T18:23:02.858Z,9.37
2018-09-14T18:25:31.342Z,9.20
2018-09-14T18:28:00.113Z,5.10
2018-09-14T18:30:28.602Z,5.83
2018-09-14T18:32:57.151Z,5.63
2018-09-14T18:35:25.641Z,9.00
2018-09-14T18:37:54.218Z,9.40
2018-09-14T18:40:22.743Z,2.83
2018-09-14T18:42:51.306Z,6.30
2018-09-14T18:45:21.574Z,7.07
2018-09-14T18:47:50.178Z,6.27
2018-09-14T18:50:18.810Z,6.13
2018-09-14T18:52:47.380Z,7.53
2018-09-14T18:55:15.964Z,2.90
2018-09-14T18:57:44.503Z,4.50
2018-09-14T19:00:13.671Z,5.57
2018-09-14T19:02:42.219Z,3.10
2018-09-14T19:05:10.835Z,5.27
2018-09-14T19:07:39.413Z,4.90
2018-09-14T19:10:07.975Z,4.43
2018-09-14T19:12:36.693Z,6.20
2018-09-14T19:15:05.515Z,5.00
2018-09-14T19:17:34.042Z,2.63
2018-09-14T19:20:02.625Z,8.77
2018-09-14T19:22:31.187Z,4.00
2018-09-14T19:25:00.399Z,6.73
2018-09-14T19:27:28.918Z,3.80
2018-09-14T19:29:58.338Z,5.73
2018-09-14T19:32:26.817Z,9.93
2018-09-14T19:34:55.406Z,3.10
2018-09-14T19:37:23.907Z,5.40
2018-09-14T19:39:53.040Z,5.10
2018-09-14T19:42:21.598Z,5.13
2018-09-14T19:44:50.079Z,7.27
2018-09-14T19:47:18.568Z,6.50
2018-09-14T19:49:47.077Z,5.00
2018-09-14T19:52:15.577Z,9.23
2018-09-14T19:54:44.091Z,3.97
2018-09-14T19:57:12.618Z,8.70
2018-09-14T19:59:41.166Z,10.67
2018-09-14T20:02:09.755Z,10.50
2018-09-14T20:04:42.284Z,2.97
2018-09-14T20:07:12.036Z,5.23
2018-09-14T20:09:41.683Z,3.80
2018-09-14T20:12:10.351Z,4.13
2018-09-14T20:14:38.888Z,8.33
2018-09-14T20:17:07.458Z,6.90
2018-09-14T20:19:35.980Z,7.30
2018-09-14T20:22:04.646Z,6.60
2018-09-14T20:24:33.155Z,7.70
2018-09-14T20:27:01.643Z,8.37
2018-09-14T20:29:30.179Z,6.23
2018-09-14T20:31:58.658Z,6.37
2018-09-14T20:34:27.201Z,16.30
2018-09-14T20:36:55.723Z,6.37
2018-09-14T20:39:24.272Z,13.90
2018-09-14T20:41:52.823Z,5.63
2018-09-14T20:44:21.304Z,5.47
2018-09-14T20:46:49.847Z,13.03
2018-09-14T20:49:18.350Z,6.47
2018-09-14T20:51:46.976Z,8.03
2018-09-14T20:54:15.419Z,8.73
2018-09-14T20:56:43.975Z,7.30
2018-09-14T20:59:12.579Z,7.23
2018-09-14T21:01:41.122Z,5.20
2018-09-14T21:04:09.711Z,7.17
2018-09-14T21:06:38.227Z,8.20
2018-09-14T21:09:08.485Z,8.43
2018-09-14T21:11:37.041Z,6.47
2018-09-14T21:14:05.656Z,14.40
2018-09-14T21:16:34.286Z,7.10
2018-09-14T21:19:03.123Z,8.00
2018-09-14T21:21:31.630Z,5.90
2018-09-14T21:24:00.211Z,6.60
2018-09-14T21:26:28.761Z,6.70
2018-09-14T21:28:57.293Z,14.90
2018-09-14T21:31:25.807Z,7.00
2018-09-14T21:33:54.384Z,8.80
2018-09-14T21:36:22.927Z,9.93
2018-09-14T21:38:51.474Z,11.10
2018-09-14T21:41:19.975Z,9.50
2018-09-14T21:43:48.510Z,9.30
2018-09-14T21:46:17.052Z,11.57
2018-09-14T21:48:45.606Z,10.70
2018-09-14T21:51:14.133Z,6.70
2018-09-14T21:53:42.668Z,5.33
2018-09-14T21:56:11.251Z,6.33
2018-09-14T21:58:39.925Z,4.07
2018-09-14T22:01:12.682Z,9.33
2018-09-14T22:03:41.718Z,10.83
2018-09-14T22:06:10.250Z,8.97
2018-09-14T22:08:38.781Z,9.03
2018-09-14T22:11:07.293Z,12.70
2018-09-14T22:13:35.859Z,6.73
2018-09-14T22:16:04.395Z,4.50
2018-09-14T22:18:33.011Z,6.03
2018-09-14T22:21:01.543Z,9.07
2018-09-14T22:23:30.040Z,8.67
2018-09-14T22:25:58.615Z,7.17
2018-09-14T22:28:27.122Z,9.33
2018-09-14T22:30:56.206Z,6.20
2018-09-14T22:33:24.741Z,10.07
2018-09-14T22:35:53.243Z,14.77
2018-09-14T22:38:21.775Z,3.53
2018-09-14T22:40:50.315Z,10.40
2018-09-14T22:43:18.803Z,7.10
2018-09-14T22:45:47.942Z,7.07
2018-09-14T22:48:16.463Z,8.00
2018-09-14T22:50:45.004Z,8.43
2018-09-14T22:53:13.508Z,7.03
2018-09-14T22:55:42.046Z,6.30
2018-09-14T22:58:10.658Z,4.90
2018-09-14T23:00:44.992Z,5.10
2018-09-14T23:03:13.490Z,10.10
2018-09-14T23:05:42.258Z,12.10
2018-09-14T23:08:10.829Z,11.43
2018-09-14T23:10:39.322Z,8.80
2018-09-14T23:13:07.918Z,10.43
2018-09-14T23:15:36.455Z,6.27
2018-09-14T23:18:05.043Z,5.70
2018-09-14T23:20:33.522Z,8.30
2018-09-14T23:23:02.038Z,8.50
2018-09-14T23:25:30.561Z,9.07
2018-09-14T23:53:35.121Z,10.03
2018-09-14T23:56:04.179Z,9.60
2018-09-14T23:58:32.687Z,12.30
